Dost 1 — TCPI — position and weather

sailwx.info

Track history (hours):
 
Tides and Currents Weather Stations Pressure Air Temp Water Temp Dewpoint Dewpoint Depression Visibility Wind Speed Wind Dir Waves Ship Positions

Dost 1

Last reported at 2014-Aug-28 04:31 UTC. Time now 2014-Aug-28 05:28 UTC.
Position N 44°39' E 037°54'.

Length 115 m; draft 4.2 m.

Type: Cargo ship. MMSI: 271000303.

Date/timePositionNaut miles runAvg speedWind from/ knotsBaromVisibWave heightAir tempDewpointWater temp
2014-Aug-28 04:31N 44°39' E 037°54'0 0.0
2014-Aug-28 03:31N 44°39' E 037°54'0 0.0
2014-Aug-28 02:33N 44°39' E 037°54'0 0.0
2014-Aug-28 01:33N 44°39' E 037°54'0 0.0
2014-Aug-28 00:32N 44°39' E 037°54'0 0.0
2014-Aug-27 23:32N 44°39' E 037°54'0 0.0
2014-Aug-27 22:32N 44°39' E 037°54'0 0.0
2014-Aug-27 21:31N 44°39' E 037°54'0 0.0
2014-Aug-27 20:31N 44°39' E 037°54'0 0.0
2014-Aug-27 19:33N 44°39' E 037°54'0 0.0
2014-Aug-27 18:33N 44°39' E 037°54'0 0.0
2014-Aug-27 17:32N 44°39' E 037°54'0 0.0
2014-Aug-27 16:29N 44°39' E 037°54'0 0.0
2014-Aug-27 15:32N 44°39' E 037°54'0 0.0
2014-Aug-27 14:31N 44°39' E 037°55'0 0.0
2014-Aug-27 13:28N 44°39' E 037°54'0 0.0
2014-Aug-27 12:33N 44°39' E 037°55'0 0.0
2014-Aug-27 11:33N 44°39' E 037°54'0 0.0
2014-Aug-27 10:33N 44°39' E 037°54'0 0.0
2014-Aug-27 09:33N 44°39' E 037°54'0 0.0
2014-Aug-27 08:33N 44°39' E 037°54'0 0.0
2014-Aug-27 07:32N 44°39' E 037°54'0 0.0
2014-Aug-27 06:32N 44°39' E 037°54'0 0.1
2014-Aug-27 05:31N 44°39' E 037°54'0 0.0
2014-Aug-27 04:33N 44°39' E 037°54'0 0.1
2014-Aug-27 03:30N 44°39' E 037°54'0 0.0
2014-Aug-27 02:33N 44°39' E 037°54'0 0.0
2014-Aug-27 01:32N 44°39' E 037°54'0 0.0
2014-Aug-27 00:32N 44°39' E 037°54'0 0.0
2014-Aug-26 23:31N 44°39' E 037°54'0 0.0
2014-Aug-26 22:31N 44°39' E 037°54'0 0.0
2014-Aug-26 21:33N 44°39' E 037°54'0 0.0
2014-Aug-26 20:33N 44°39' E 037°54'0 0.0
2014-Aug-26 19:33N 44°39' E 037°54'0 0.1
2014-Aug-26 18:34N 44°39' E 037°54'9 9.2
2014-Aug-26 17:34N 44°31' E 037°48'44211.8
2014-Aug-25 04:04N 40°60' E 028°60'611.3
2014-Aug-25 03:32N 40°54' E 029°00'7 7.6
2014-Aug-25 02:33N 40°52' E 029°10'0 0.3
2014-Aug-25 01:30N 40°52' E 029°10'0 0.0
2014-Aug-25 00:29N 40°52' E 029°10'0 0.1
2014-Aug-24 23:29N 40°52' E 029°10'0 0.1
2014-Aug-24 22:22N 40°52' E 029°10'0 0.0
2014-Aug-24 21:28N 40°52' E 029°10'0 0.1
2014-Aug-24 20:33N 40°52' E 029°10'0 0.1
2014-Aug-24 19:33N 40°52' E 029°10'0 0.0
2014-Aug-24 17:32N 40°52' E 029°10'0 0.0
2014-Aug-24 16:32N 40°52' E 029°10'0 0.0
2014-Aug-24 15:25N 40°52' E 029°10'0 0.0
2014-Aug-24 14:25N 40°52' E 029°10'0 0.0
2014-Aug-24 13:30N 40°52' E 029°10'0 0.1
2014-Aug-24 12:33N 40°52' E 029°10'1 1.4
2014-Aug-24 11:33N 40°51' E 029°10'1111.1
2014-Aug-24 10:33N 40°44' E 029°22'8 0.2
2014-Aug-23 02:32N 40°46' E 029°33'4 0.5
2014-Aug-22 17:13N 40°46' E 029°27'2 3.3
2014-Aug-22 16:33N 40°44' E 029°25'9 9.3
2014-Aug-22 15:33N 40°47' E 029°13'1211.7
2014-Aug-22 14:33N 40°54' E 029°01'22 5.2
2014-Aug-22 10:17N 41°16' E 029°04'  
Track history (hours):
 
Tides and Currents Weather Stations Pressure Air Temp Water Temp Dewpoint Dewpoint Depression Visibility Wind Speed Wind Dir Waves Ship Positions

Dost 1

Last reported at 2014-Aug-28 04:31 UTC. Time now 2014-Aug-28 05:28 UTC.
Position N 44°39' E 037°54'.

Length 115 m; draft 4.2 m.

Type: Cargo ship. MMSI: 271000303.

Date/timePositionNaut miles runAvg speedWind from/ knotsBaromVisibWave heightAir tempDewpointWater temp
2014-Aug-28 04:31N 44°39' E 037°54'0 0.0
2014-Aug-28 03:31N 44°39' E 037°54'0 0.0
2014-Aug-28 02:33N 44°39' E 037°54'0 0.0
2014-Aug-28 01:33N 44°39' E 037°54'0 0.0
2014-Aug-28 00:32N 44°39' E 037°54'0 0.0
2014-Aug-27 23:32N 44°39' E 037°54'0 0.0
2014-Aug-27 22:32N 44°39' E 037°54'0 0.0
2014-Aug-27 21:31N 44°39' E 037°54'0 0.0
2014-Aug-27 20:31N 44°39' E 037°54'0 0.0
2014-Aug-27 19:33N 44°39' E 037°54'0 0.0
2014-Aug-27 18:33N 44°39' E 037°54'0 0.0
2014-Aug-27 17:32N 44°39' E 037°54'0 0.0
2014-Aug-27 16:29N 44°39' E 037°54'0 0.0
2014-Aug-27 15:32N 44°39' E 037°54'0 0.0
2014-Aug-27 14:31N 44°39' E 037°55'0 0.0
2014-Aug-27 13:28N 44°39' E 037°54'0 0.0
2014-Aug-27 12:33N 44°39' E 037°55'0 0.0
2014-Aug-27 11:33N 44°39' E 037°54'0 0.0
2014-Aug-27 10:33N 44°39' E 037°54'0 0.0
2014-Aug-27 09:33N 44°39' E 037°54'0 0.0
2014-Aug-27 08:33N 44°39' E 037°54'0 0.0
2014-Aug-27 07:32N 44°39' E 037°54'0 0.0
2014-Aug-27 06:32N 44°39' E 037°54'0 0.1
2014-Aug-27 05:31N 44°39' E 037°54'0 0.0
2014-Aug-27 04:33N 44°39' E 037°54'0 0.1
2014-Aug-27 03:30N 44°39' E 037°54'0 0.0
2014-Aug-27 02:33N 44°39' E 037°54'0 0.0
2014-Aug-27 01:32N 44°39' E 037°54'0 0.0
2014-Aug-27 00:32N 44°39' E 037°54'0 0.0
2014-Aug-26 23:31N 44°39' E 037°54'0 0.0
2014-Aug-26 22:31N 44°39' E 037°54'0 0.0
2014-Aug-26 21:33N 44°39' E 037°54'0 0.0
2014-Aug-26 20:33N 44°39' E 037°54'0 0.0
2014-Aug-26 19:33N 44°39' E 037°54'0 0.1
2014-Aug-26 18:34N 44°39' E 037°54'9 9.2
2014-Aug-26 17:34N 44°31' E 037°48'44211.8
2014-Aug-25 04:04N 40°60' E 028°60'611.3
2014-Aug-25 03:32N 40°54' E 029°00'7 7.6
2014-Aug-25 02:33N 40°52' E 029°10'0 0.3
2014-Aug-25 01:30N 40°52' E 029°10'0 0.0
2014-Aug-25 00:29N 40°52' E 029°10'0 0.1
2014-Aug-24 23:29N 40°52' E 029°10'0 0.1
2014-Aug-24 22:22N 40°52' E 029°10'0 0.0
2014-Aug-24 21:28N 40°52' E 029°10'0 0.1
2014-Aug-24 20:33N 40°52' E 029°10'0 0.1
2014-Aug-24 19:33N 40°52' E 029°10'0 0.0
2014-Aug-24 17:32N 40°52' E 029°10'0 0.0
2014-Aug-24 16:32N 40°52' E 029°10'0 0.0
2014-Aug-24 15:25N 40°52' E 029°10'0 0.0
2014-Aug-24 14:25N 40°52' E 029°10'0 0.0
2014-Aug-24 13:30N 40°52' E 029°10'0 0.1
2014-Aug-24 12:33N 40°52' E 029°10'1 1.4
2014-Aug-24 11:33N 40°51' E 029°10'1111.1
2014-Aug-24 10:33N 40°44' E 029°22'8 0.2
2014-Aug-23 02:32N 40°46' E 029°33'4 0.5
2014-Aug-22 17:13N 40°46' E 029°27'2 3.3
2014-Aug-22 16:33N 40°44' E 029°25'9 9.3
2014-Aug-22 15:33N 40°47' E 029°13'1211.7
2014-Aug-22 14:33N 40°54' E 029°01'22 5.2
2014-Aug-22 10:17N 41°16' E 029°04'  

Dump ship's entire track history